sensor_id;sensor_type;location;lat;lon;timestamp;pressure;altitude;pressure_sealevel;temperature;humidity
59729;BME280;45588;51.598;5.618;2022-08-02T00:02:09;101777.22;;;12.71;100.00
59729;BME280;45588;51.598;5.618;2022-08-02T00:04:34;101776.44;;;12.74;100.00
59729;BME280;45588;51.598;5.618;2022-08-02T00:07:00;101777.28;;;12.73;100.00
59729;BME280;45588;51.598;5.618;2022-08-02T00:09:25;101768.44;;;12.69;100.00
59729;BME280;45588;51.598;5.618;2022-08-02T00:11:51;101771.94;;;12.70;100.00
59729;BME280;45588;51.598;5.618;2022-08-02T00:14:16;101770.19;;;12.69;100.00
59729;BME280;45588;51.598;5.618;2022-08-02T00:16:42;101770.13;;;12.67;100.00
59729;BME280;45588;51.598;5.618;2022-08-02T00:19:07;101778.91;;;12.69;100.00
59729;BME280;45588;51.598;5.618;2022-08-02T00:21:32;101771.78;;;12.64;100.00
59729;BME280;45588;51.598;5.618;2022-08-02T00:23:58;101776.13;;;12.63;100.00
59729;BME280;45588;51.598;5.618;2022-08-02T00:26:23;101771.56;;;12.56;100.00
59729;BME280;45588;51.598;5.618;2022-08-02T00:28:48;101776.00;;;12.59;100.00
59729;BME280;45588;51.598;5.618;2022-08-02T00:31:14;101781.22;;;12.59;100.00
59729;BME280;45588;51.598;5.618;2022-08-02T00:33:39;101778.69;;;12.62;100.00
59729;BME280;45588;51.598;5.618;2022-08-02T00:36:04;101782.19;;;12.62;100.00
59729;BME280;45588;51.598;5.618;2022-08-02T00:38:30;101771.56;;;12.56;100.00
59729;BME280;45588;51.598;5.618;2022-08-02T00:40:55;101777.56;;;12.53;100.00
59729;BME280;45588;51.598;5.618;2022-08-02T00:43:20;101772.34;;;12.53;100.00
59729;BME280;45588;51.598;5.618;2022-08-02T00:45:46;101771.63;;;12.58;100.00
59729;BME280;45588;51.598;5.618;2022-08-02T00:48:12;101773.44;;;12.60;100.00
59729;BME280;45588;51.598;5.618;2022-08-02T00:50:38;101776.00;;;12.59;100.00
59729;BME280;45588;51.598;5.618;2022-08-02T00:53:04;101768.22;;;12.60;100.00
59729;BME280;45588;51.598;5.618;2022-08-02T00:55:30;101759.44;;;12.58;100.00
59729;BME280;45588;51.598;5.618;2022-08-02T00:57:56;101762.19;;;12.63;100.00
59729;BME280;45588;51.598;5.618;2022-08-02T01:00:21;101750.97;;;12.67;100.00
59729;BME280;45588;51.598;5.618;2022-08-02T01:02:47;101752.38;;;12.55;100.00
59729;BME280;45588;51.598;5.618;2022-08-02T01:05:13;101757.63;;;12.57;100.00
59729;BME280;45588;51.598;5.618;2022-08-02T01:07:38;101760.25;;;12.57;100.00
59729;BME280;45588;51.598;5.618;2022-08-02T01:10:04;101754.13;;;12.55;100.00
59729;BME280;45588;51.598;5.618;2022-08-02T01:12:30;101753.25;;;12.56;100.00
59729;BME280;45588;51.598;5.618;2022-08-02T01:14:58;101741.94;;;12.55;100.00
59729;BME280;45588;51.598;5.618;2022-08-02T01:17:43;101747.91;;;12.51;100.00
59729;BME280;45588;51.598;5.618;2022-08-02T01:25:43;101749.78;;;12.55;100.00
59729;BME280;45588;51.598;5.618;2022-08-02T01:30:57;101756.97;;;12.64;100.00
59729;BME280;45588;51.598;5.618;2022-08-02T01:33:28;101753.63;;;12.68;100.00
59729;BME280;45588;51.598;5.618;2022-08-02T01:35:57;101748.41;;;12.68;100.00
59729;BME280;45588;51.598;5.618;2022-08-02T01:38:29;101742.31;;;12.69;100.00
59729;BME280;45588;51.598;5.618;2022-08-02T01:40:57;101737.88;;;12.67;100.00
59729;BME280;45588;51.598;5.618;2022-08-02T01:43:25;101742.31;;;12.69;100.00
59729;BME280;45588;51.598;5.618;2022-08-02T01:45:53;101731.94;;;12.72;100.00
59729;BME280;45588;51.598;5.618;2022-08-02T01:48:20;101722.34;;;12.71;100.00
59729;BME280;45588;51.598;5.618;2022-08-02T01:50:48;101728.50;;;12.73;100.00
59729;BME280;45588;51.598;5.618;2022-08-02T01:53:14;101734.44;;;12.68;100.00
59729;BME280;45588;51.598;5.618;2022-08-02T01:55:47;101722.22;;;12.67;100.00
59729;BME280;45588;51.598;5.618;2022-08-02T01:58:16;101730.09;;;12.68;100.00
59729;BME280;45588;51.598;5.618;2022-08-02T02:00:43;101723.19;;;12.70;100.00
59729;BME280;45588;51.598;5.618;2022-08-02T02:03:13;101726.84;;;12.75;100.00
59729;BME280;45588;51.598;5.618;2022-08-02T02:05:39;101724.28;;;12.78;100.00
59729;BME280;45588;51.598;5.618;2022-08-02T02:08:06;101718.31;;;12.83;100.00
59729;BME280;45588;51.598;5.618;2022-08-02T02:10:34;101720.97;;;12.84;100.00
59729;BME280;45588;51.598;5.618;2022-08-02T02:13:05;101724.56;;;12.88;100.00
59729;BME280;45588;51.598;5.618;2022-08-02T02:15:33;101722.97;;;12.93;100.00
59729;BME280;45588;51.598;5.618;2022-08-02T02:17:59;101721.34;;;12.98;100.00
59729;BME280;45588;51.598;5.618;2022-08-02T02:20:26;101710.13;;;13.02;100.00
59729;BME280;45588;51.598;5.618;2022-08-02T02:22:52;101707.69;;;13.08;100.00
59729;BME280;45588;51.598;5.618;2022-08-02T02:25:19;101705.13;;;13.11;100.00
59729;BME280;45588;51.598;5.618;2022-08-02T02:27:53;101692.06;;;13.11;100.00
59729;BME280;45588;51.598;5.618;2022-08-02T02:30:20;101694.69;;;13.11;100.00
59729;BME280;45588;51.598;5.618;2022-08-02T02:32:49;101694.59;;;13.08;100.00
59729;BME280;45588;51.598;5.618;2022-08-02T02:35:17;101696.22;;;13.05;100.00
59729;BME280;45588;51.598;5.618;2022-08-02T02:37:44;101687.44;;;13.01;100.00
59729;BME280;45588;51.598;5.618;2022-08-02T02:40:14;101686.59;;;13.02;100.00
59729;BME280;45588;51.598;5.618;2022-08-02T02:42:41;101680.41;;;12.98;100.00
59729;BME280;45588;51.598;5.618;2022-08-02T02:45:08;101684.63;;;12.93;100.00
59729;BME280;45588;51.598;5.618;2022-08-02T02:47:35;101678.38;;;12.88;100.00
59729;BME280;45588;51.598;5.618;2022-08-02T02:50:01;101681.66;;;12.81;100.00
59729;BME280;45588;51.598;5.618;2022-08-02T02:52:27;101693.13;;;12.86;100.00
59729;BME280;45588;51.598;5.618;2022-08-02T02:54:53;101687.78;;;12.82;100.00
59729;BME280;45588;51.598;5.618;2022-08-02T02:57:19;101683.22;;;12.74;100.00
59729;BME280;45588;51.598;5.618;2022-08-02T02:59:46;101689.31;;;12.75;100.00
59729;BME280;45588;51.598;5.618;2022-08-02T03:02:12;101688.56;;;12.77;100.00
59729;BME280;45588;51.598;5.618;2022-08-02T03:04:39;101676.19;;;12.72;100.00
59729;BME280;45588;51.598;5.618;2022-08-02T03:07:06;101686.72;;;12.75;100.00
59729;BME280;45588;51.598;5.618;2022-08-02T03:09:31;101683.13;;;12.71;100.00
59729;BME280;45588;51.598;5.618;2022-08-02T03:11:57;101671.00;;;12.73;100.00
59729;BME280;45588;51.598;5.618;2022-08-02T03:14:22;101671.81;;;12.71;100.00
59729;BME280;45588;51.598;5.618;2022-08-02T03:16:49;101673.34;;;12.63;100.00
59729;BME280;45588;51.598;5.618;2022-08-02T03:19:15;101669.00;;;12.65;100.00
59729;BME280;45588;51.598;5.618;2022-08-02T03:21:42;101675.16;;;12.65;100.00
59729;BME280;45588;51.598;5.618;2022-08-02T03:24:08;101673.34;;;12.63;100.00
59729;BME280;45588;51.598;5.618;2022-08-02T03:26:34;101668.84;;;12.59;100.00
59729;BME280;45588;51.598;5.618;2022-08-02T03:28:59;101675.81;;;12.58;100.00
59729;BME280;45588;51.598;5.618;2022-08-02T03:31:24;101673.22;;;12.60;100.00
59729;BME280;45588;51.598;5.618;2022-08-02T03:33:50;101684.59;;;12.62;100.00
59729;BME280;45588;51.598;5.618;2022-08-02T03:36:18;101682.94;;;12.64;100.00
59729;BME280;45588;51.598;5.618;2022-08-02T03:38:45;101680.31;;;12.64;100.00
59729;BME280;45588;51.598;5.618;2022-08-02T03:41:15;101670.81;;;12.67;100.00
59729;BME280;45588;51.598;5.618;2022-08-02T03:43:41;101667.31;;;12.65;100.00
59729;BME280;45588;51.598;5.618;2022-08-02T03:46:09;101668.25;;;12.69;100.00
59729;BME280;45588;51.598;5.618;2022-08-02T03:48:37;101668.19;;;12.67;100.00
59729;BME280;45588;51.598;5.618;2022-08-02T03:51:03;101663.88;;;12.68;100.00
59729;BME280;45588;51.598;5.618;2022-08-02T03:53:29;101656.94;;;12.68;100.00
59729;BME280;45588;51.598;5.618;2022-08-02T03:55:55;101663.91;;;12.69;100.00
59729;BME280;45588;51.598;5.618;2022-08-02T03:58:22;101663.91;;;12.69;100.00
59729;BME280;45588;51.598;5.618;2022-08-02T04:00:48;101660.22;;;12.61;100.00
59729;BME280;45588;51.598;5.618;2022-08-02T04:03:14;101665.38;;;12.60;100.00
59729;BME280;45588;51.598;5.618;2022-08-02T04:05:40;101658.25;;;12.54;100.00
59729;BME280;45588;51.598;5.618;2022-08-02T04:08:05;101670.66;;;12.61;100.00
59729;BME280;45588;51.598;5.618;2022-08-02T04:10:31;101660.06;;;12.55;100.00
59729;BME280;45588;51.598;5.618;2022-08-02T04:13:16;101656.75;;;12.62;100.00
59729;BME280;45588;51.598;5.618;2022-08-02T04:15:42;101657.09;;;12.74;100.00
59729;BME280;45588;51.598;5.618;2022-08-02T04:18:07;101659.69;;;12.74;100.00
59729;BME280;45588;51.598;5.618;2022-08-02T04:20:33;101653.94;;;12.86;100.00
59729;BME280;45588;51.598;5.618;2022-08-02T04:23:07;101655.72;;;12.89;100.00
59729;BME280;45588;51.598;5.618;2022-08-02T04:25:34;101656.88;;;13.00;100.00
59729;BME280;45588;51.598;5.618;2022-08-02T04:28:00;101660.50;;;13.05;100.00
59729;BME280;45588;51.598;5.618;2022-08-02T04:30:27;101656.31;;;13.10;100.00
59729;BME280;45588;51.598;5.618;2022-08-02T04:32:53;101650.16;;;13.08;100.00
59729;BME280;45588;51.598;5.618;2022-08-02T04:35:19;101660.63;;;13.10;100.00
59729;BME280;45588;51.598;5.618;2022-08-02T04:37:44;101664.16;;;13.10;100.00
59729;BME280;45588;51.598;5.618;2022-08-02T04:40:12;101662.69;;;13.21;100.00
59729;BME280;45588;51.598;5.618;2022-08-02T04:42:38;101671.25;;;13.49;100.00
59729;BME280;45588;51.598;5.618;2022-08-02T04:45:05;101669.22;;;13.74;100.00
59729;BME280;45588;51.598;5.618;2022-08-02T04:47:31;101661.72;;;13.89;100.00
59729;BME280;45588;51.598;5.618;2022-08-02T04:49:57;101649.94;;;14.10;100.00
59729;BME280;45588;51.598;5.618;2022-08-02T04:52:22;101656.38;;;14.25;100.00
59729;BME280;45588;51.598;5.618;2022-08-02T04:54:47;101657.50;;;14.37;100.00
59729;BME280;45588;51.598;5.618;2022-08-02T04:57:13;101656.06;;;14.53;100.00
59729;BME280;45588;51.598;5.618;2022-08-02T04:59:56;101645.28;;;14.37;100.00
59729;BME280;45588;51.598;5.618;2022-08-02T05:02:22;101647.44;;;14.16;100.00
59729;BME280;45588;51.598;5.618;2022-08-02T05:04:47;101653.22;;;14.01;100.00
59729;BME280;45588;51.598;5.618;2022-08-02T05:07:13;101653.16;;;13.96;100.00
59729;BME280;45588;51.598;5.618;2022-08-02T05:09:38;101657.69;;;14.05;100.00
59729;BME280;45588;51.598;5.618;2022-08-02T05:12:05;101645.38;;;14.01;100.00
59729;BME280;45588;51.598;5.618;2022-08-02T05:14:30;101640.34;;;14.09;100.00
59729;BME280;45588;51.598;5.618;2022-08-02T05:16:56;101641.38;;;14.18;100.00
59729;BME280;45588;51.598;5.618;2022-08-02T05:19:21;101643.50;;;14.36;100.00
59729;BME280;45588;51.598;5.618;2022-08-02T05:21:46;101640.25;;;14.48;100.00
59729;BME280;45588;51.598;5.618;2022-08-02T05:24:11;101630.94;;;14.62;100.00
59729;BME280;45588;51.598;5.618;2022-08-02T05:26:37;101640.06;;;14.83;100.00
59729;BME280;45588;51.598;5.618;2022-08-02T05:29:03;101632.53;;;15.01;100.00
59729;BME280;45588;51.598;5.618;2022-08-02T05:31:29;101632.03;;;15.22;100.00
59729;BME280;45588;51.598;5.618;2022-08-02T05:33:54;101627.84;;;15.36;100.00
59729;BME280;45588;51.598;5.618;2022-08-02T05:36:19;101629.97;;;15.59;100.00
59729;BME280;45588;51.598;5.618;2022-08-02T05:38:45;101630.22;;;15.73;100.00
59729;BME280;45588;51.598;5.618;2022-08-02T05:41:10;101627.81;;;15.90;100.00
59729;BME280;45588;51.598;5.618;2022-08-02T05:43:35;101627.19;;;16.08;100.00
59729;BME280;45588;51.598;5.618;2022-08-02T05:46:00;101621.25;;;16.24;100.00
59729;BME280;45588;51.598;5.618;2022-08-02T05:48:26;101625.75;;;16.34;100.00
59729;BME280;45588;51.598;5.618;2022-08-02T05:51:01;101626.00;;;16.56;100.00
59729;BME280;45588;51.598;5.618;2022-08-02T05:53:43;101628.78;;;16.71;100.00
59729;BME280;45588;51.598;5.618;2022-08-02T05:56:40;101632.47;;;16.85;100.00
59729;BME280;45588;51.598;5.618;2022-08-02T06:01:47;101630.94;;;17.06;100.00
59729;BME280;45588;51.598;5.618;2022-08-02T06:04:19;101635.47;;;17.25;100.00
59729;BME280;45588;51.598;5.618;2022-08-02T06:06:52;101639.03;;;17.32;100.00
59729;BME280;45588;51.598;5.618;2022-08-02T06:09:19;101631.31;;;17.58;100.00
59729;BME280;45588;51.598;5.618;2022-08-02T06:11:46;101635.66;;;17.53;100.00
59729;BME280;45588;51.598;5.618;2022-08-02T06:14:14;101642.00;;;17.77;100.00
59729;BME280;45588;51.598;5.618;2022-08-02T06:16:40;101651.78;;;17.98;100.00
59729;BME280;45588;51.598;5.618;2022-08-02T06:19:06;101645.69;;;18.11;100.00
59729;BME280;45588;51.598;5.618;2022-08-02T06:21:33;101642.19;;;18.10;100.00
59729;BME280;45588;51.598;5.618;2022-08-02T06:24:00;101646.72;;;18.41;100.00
59729;BME280;45588;51.598;5.618;2022-08-02T06:26:27;101632.72;;;18.68;100.00
59729;BME280;45588;51.598;5.618;2022-08-02T06:28:54;101637.13;;;18.73;100.00
59729;BME280;45588;51.598;5.618;2022-08-02T06:31:19;101632.72;;;18.66;100.00
59729;BME280;45588;51.598;5.618;2022-08-02T06:33:45;101630.09;;;18.72;100.00
59729;BME280;45588;51.598;5.618;2022-08-02T06:36:27;101619.59;;;18.80;100.00
59729;BME280;45588;51.598;5.618;2022-08-02T06:39:19;101623.09;;;18.97;100.00
59729;BME280;45588;51.598;5.618;2022-08-02T06:41:51;101629.31;;;19.02;100.00
59729;BME280;45588;51.598;5.618;2022-08-02T06:44:18;101632.81;;;19.06;100.00
59729;BME280;45588;51.598;5.618;2022-08-02T06:46:43;101616.97;;;19.26;100.00
59729;BME280;45588;51.598;5.618;2022-08-02T06:49:09;101638.97;;;19.42;100.00
59729;BME280;45588;51.598;5.618;2022-08-02T06:51:34;101618.69;;;19.52;100.00
59729;BME280;45588;51.598;5.618;2022-08-02T06:53:59;101631.03;;;19.76;100.00
59729;BME280;45588;51.598;5.618;2022-08-02T06:56:25;101616.91;;;19.80;100.00
59729;BME280;45588;51.598;5.618;2022-08-02T06:58:51;101615.13;;;19.91;100.00
59729;BME280;45588;51.598;5.618;2022-08-02T07:01:18;101615.03;;;20.13;100.00
59729;BME280;45588;51.598;5.618;2022-08-02T07:03:43;101625.53;;;20.32;100.00
59729;BME280;45588;51.598;5.618;2022-08-02T07:06:09;101616.75;;;20.20;97.59
59729;BME280;45588;51.598;5.618;2022-08-02T07:08:35;101619.31;;;20.41;100.00
59729;BME280;45588;51.598;5.618;2022-08-02T07:11:06;101616.56;;;20.64;100.00
59729;BME280;45588;51.598;5.618;2022-08-02T07:13:32;101622.66;;;20.75;98.85
59729;BME280;45588;51.598;5.618;2022-08-02T07:15:57;101621.69;;;20.92;98.28
59729;BME280;45588;51.598;5.618;2022-08-02T07:18:23;101625.94;;;21.10;97.51
59729;BME280;45588;51.598;5.618;2022-08-02T07:20:48;101622.38;;;21.17;96.46
59729;BME280;45588;51.598;5.618;2022-08-02T07:23:14;101619.59;;;21.32;97.50
59729;BME280;45588;51.598;5.618;2022-08-02T07:25:39;101621.28;;;21.43;96.03
59729;BME280;45588;51.598;5.618;2022-08-02T07:28:05;101614.91;;;21.59;95.89
59729;BME280;45588;51.598;5.618;2022-08-02T07:30:33;101619.28;;;21.66;95.58
59729;BME280;45588;51.598;5.618;2022-08-02T07:32:58;101614.91;;;21.59;93.66
59729;BME280;45588;51.598;5.618;2022-08-02T07:35:24;101606.06;;;21.63;94.03
59729;BME280;45588;51.598;5.618;2022-08-02T07:37:50;101603.44;;;21.60;92.86
59729;BME280;45588;51.598;5.618;2022-08-02T07:40:15;101608.75;;;21.57;94.92
59729;BME280;45588;51.598;5.618;2022-08-02T07:42:41;101598.31;;;21.45;94.07
59729;BME280;45588;51.598;5.618;2022-08-02T07:45:07;101601.69;;;21.57;93.13
59729;BME280;45588;51.598;5.618;2022-08-02T07:47:37;101598.97;;;21.65;94.83
59729;BME280;45588;51.598;5.618;2022-08-02T07:50:03;101599.59;;;21.87;93.21
59729;BME280;45588;51.598;5.618;2022-08-02T07:52:28;101601.31;;;21.90;93.30
59729;BME280;45588;51.598;5.618;2022-08-02T07:54:54;101601.00;;;22.16;93.82
59729;BME280;45588;51.598;5.618;2022-08-02T07:57:19;101600.09;;;22.18;91.05
59729;BME280;45588;51.598;5.618;2022-08-02T07:59:45;101606.16;;;22.33;92.84
59729;BME280;45588;51.598;5.618;2022-08-02T08:02:12;101605.94;;;22.48;89.66
59729;BME280;45588;51.598;5.618;2022-08-02T08:04:38;101598.53;;;22.68;90.96
59729;BME280;45588;51.598;5.618;2022-08-02T08:07:04;101606.53;;;22.67;89.45
59729;BME280;45588;51.598;5.618;2022-08-02T08:09:30;101601.75;;;22.89;89.83
59729;BME280;45588;51.598;5.618;2022-08-02T08:11:55;101596.97;;;23.13;91.24
59729;BME280;45588;51.598;5.618;2022-08-02T08:14:20;101598.38;;;23.33;87.89
59729;BME280;45588;51.598;5.618;2022-08-02T08:16:46;101594.88;;;23.31;85.23
59729;BME280;45588;51.598;5.618;2022-08-02T08:19:11;101601.50;;;23.57;86.49
59729;BME280;45588;51.598;5.618;2022-08-02T08:21:36;101591.75;;;23.56;82.33
59729;BME280;45588;51.598;5.618;2022-08-02T08:24:02;101593.38;;;23.63;82.32
59729;BME280;45588;51.598;5.618;2022-08-02T08:26:28;101579.00;;;23.77;84.11
59729;BME280;45588;51.598;5.618;2022-08-02T08:28:54;101576.97;;;23.88;81.11
59729;BME280;45588;51.598;5.618;2022-08-02T08:31:19;101584.25;;;23.80;79.59
59729;BME280;45588;51.598;5.618;2022-08-02T08:33:44;101580.34;;;23.96;81.50
59729;BME280;45588;51.598;5.618;2022-08-02T08:36:10;101589.22;;;23.96;81.99
59729;BME280;45588;51.598;5.618;2022-08-02T08:38:35;101588.28;;;23.99;80.52
59729;BME280;45588;51.598;5.618;2022-08-02T08:41:00;101580.34;;;23.96;80.25
59729;BME280;45588;51.598;5.618;2022-08-02T08:43:26;101576.59;;;24.06;82.89
59729;BME280;45588;51.598;5.618;2022-08-02T08:45:51;101577.25;;;24.16;82.04
59729;BME280;45588;51.598;5.618;2022-08-02T08:48:17;101580.78;;;24.16;81.22
59729;BME280;45588;51.598;5.618;2022-08-02T08:50:52;101586.75;;;24.29;83.12
59729;BME280;45588;51.598;5.618;2022-08-02T08:53:20;101581.97;;;24.45;82.73
59729;BME280;45588;51.598;5.618;2022-08-02T08:55:46;101586.84;;;24.65;81.68
59729;BME280;45588;51.598;5.618;2022-08-02T08:58:12;101584.84;;;24.75;79.00
59729;BME280;45588;51.598;5.618;2022-08-02T09:00:38;101589.31;;;24.73;75.59
59729;BME280;45588;51.598;5.618;2022-08-02T09:03:06;101582.69;;;24.89;77.10
59729;BME280;45588;51.598;5.618;2022-08-02T09:05:37;101584.47;;;24.90;78.53
59729;BME280;45588;51.598;5.618;2022-08-02T09:08:03;101584.41;;;24.92;75.89
59729;BME280;45588;51.598;5.618;2022-08-02T09:10:43;101588.78;;;24.94;77.87
59729;BME280;45588;51.598;5.618;2022-08-02T09:15:35;101585.53;;;24.83;74.98
59729;BME280;45588;51.598;5.618;2022-08-02T09:18:02;101586.69;;;24.71;73.59
59729;BME280;45588;51.598;5.618;2022-08-02T09:20:30;101593.16;;;24.97;75.53
59729;BME280;45588;51.598;5.618;2022-08-02T09:23:05;101587.03;;;24.95;77.80
59729;BME280;45588;51.598;5.618;2022-08-02T09:25:30;101586.97;;;24.96;74.27
59729;BME280;45588;51.598;5.618;2022-08-02T09:27:58;101582.50;;;24.97;73.71
59729;BME280;45588;51.598;5.618;2022-08-02T09:30:25;101581.59;;;25.34;72.63
59729;BME280;45588;51.598;5.618;2022-08-02T09:32:51;101579.22;;;25.23;69.41
59729;BME280;45588;51.598;5.618;2022-08-02T09:35:30;101581.34;;;25.43;73.25
59729;BME280;45588;51.598;5.618;2022-08-02T09:38:10;101568.78;;;25.48;70.21
59729;BME280;45588;51.598;5.618;2022-08-02T09:40:37;101583.13;;;25.42;68.73
59729;BME280;45588;51.598;5.618;2022-08-02T09:43:03;101580.59;;;25.71;71.35
59729;BME280;45588;51.598;5.618;2022-08-02T09:45:30;101582.00;;;25.82;69.83
59729;BME280;45588;51.598;5.618;2022-08-02T09:47:56;101569.31;;;25.92;69.37
59729;BME280;45588;51.598;5.618;2022-08-02T09:50:21;101573.72;;;26.23;70.92
59729;BME280;45588;51.598;5.618;2022-08-02T09:52:47;101569.28;;;26.23;66.59
59729;BME280;45588;51.598;5.618;2022-08-02T09:55:12;101571.06;;;26.23;66.09
59729;BME280;45588;51.598;5.618;2022-08-02T09:57:38;101570.78;;;26.02;66.08
59729;BME280;45588;51.598;5.618;2022-08-02T10:00:08;101569.91;;;26.02;65.18
59729;BME280;45588;51.598;5.618;2022-08-02T10:02:35;101576.59;;;26.17;63.19
59729;BME280;45588;51.598;5.618;2022-08-02T10:05:00;101575.50;;;26.24;60.01
59729;BME280;45588;51.598;5.618;2022-08-02T10:07:25;101569.50;;;26.16;57.86
59729;BME280;45588;51.598;5.618;2022-08-02T10:09:51;101576.63;;;26.45;60.45
59729;BME280;45588;51.598;5.618;2022-08-02T10:12:16;101579.94;;;26.53;56.52
59729;BME280;45588;51.598;5.618;2022-08-02T10:14:41;101576.63;;;26.45;55.83
59729;BME280;45588;51.598;5.618;2022-08-02T10:17:08;101578.28;;;26.49;53.48
59729;BME280;45588;51.598;5.618;2022-08-02T10:19:33;101571.53;;;26.65;53.55
59729;BME280;45588;51.598;5.618;2022-08-02T10:22:10;101568.59;;;26.73;53.45
59729;BME280;45588;51.598;5.618;2022-08-02T10:24:38;101568.63;;;26.43;50.70
59729;BME280;45588;51.598;5.618;2022-08-02T10:27:05;101559.63;;;26.75;52.42
59729;BME280;45588;51.598;5.618;2022-08-02T10:29:37;101577.78;;;26.92;51.64
59729;BME280;45588;51.598;5.618;2022-08-02T10:32:13;101570.81;;;27.13;51.16
59729;BME280;45588;51.598;5.618;2022-08-02T10:34:46;101565.75;;;27.32;51.03
59729;BME280;45588;51.598;5.618;2022-08-02T10:37:13;101566.50;;;27.36;49.41
59729;BME280;45588;51.598;5.618;2022-08-02T10:39:41;101562.13;;;27.33;48.45
59729;BME280;45588;51.598;5.618;2022-08-02T10:42:08;101573.34;;;27.45;48.60
59729;BME280;45588;51.598;5.618;2022-08-02T10:44:34;101559.41;;;27.60;49.69
59729;BME280;45588;51.598;5.618;2022-08-02T10:47:24;101564.34;;;27.71;51.01
59729;BME280;45588;51.598;5.618;2022-08-02T10:52:28;101556.59;;;27.63;47.54
59729;BME280;45588;51.598;5.618;2022-08-02T10:57:24;101567.47;;;27.58;48.61
59729;BME280;45588;51.598;5.618;2022-08-02T10:59:55;101554.88;;;27.37;47.75
59729;BME280;45588;51.598;5.618;2022-08-02T11:02:38;101559.69;;;27.27;49.49
59729;BME280;45588;51.598;5.618;2022-08-02T11:07:42;101555.59;;;27.15;47.15
59729;BME280;45588;51.598;5.618;2022-08-02T11:10:38;101558.03;;;27.48;48.31
59729;BME280;45588;51.598;5.618;2022-08-02T11:13:12;101558.91;;;27.49;48.64
59729;BME280;45588;51.598;5.618;2022-08-02T11:15:54;101558.03;;;27.48;47.19
59729;BME280;45588;51.598;5.618;2022-08-02T11:18:22;101547.84;;;27.83;48.15
59729;BME280;45588;51.598;5.618;2022-08-02T11:21:21;101557.69;;;27.82;48.95
59729;BME280;45588;51.598;5.618;2022-08-02T11:23:50;101544.13;;;28.11;48.88
59729;BME280;45588;51.598;5.618;2022-08-02T11:28:58;101548.00;;;28.25;44.92
59729;BME280;45588;51.598;5.618;2022-08-02T11:31:23;101543.19;;;28.34;47.29
59729;BME280;45588;51.598;5.618;2022-08-02T11:33:49;101554.13;;;28.05;43.88
59729;BME280;45588;51.598;5.618;2022-08-02T11:36:16;101560.41;;;28.04;44.05
59729;BME280;45588;51.598;5.618;2022-08-02T11:38:42;101550.47;;;28.08;47.54
59729;BME280;45588;51.598;5.618;2022-08-02T11:41:07;101546.31;;;27.99;45.38
59729;BME280;45588;51.598;5.618;2022-08-02T11:43:34;101545.75;;;27.91;48.65
59729;BME280;45588;51.598;5.618;2022-08-02T11:46:03;101545.91;;;27.87;44.55
59729;BME280;45588;51.598;5.618;2022-08-02T11:48:35;101547.84;;;27.83;45.16
59729;BME280;45588;51.598;5.618;2022-08-02T11:51:06;101546.00;;;27.85;44.75
59729;BME280;45588;51.598;5.618;2022-08-02T11:56:06;101538.88;;;27.84;45.93
59729;BME280;45588;51.598;5.618;2022-08-02T11:58:31;101529.13;;;27.83;45.74
59729;BME280;45588;51.598;5.618;2022-08-02T12:00:57;101549.72;;;27.79;43.75
59729;BME280;45588;51.598;5.618;2022-08-02T12:03:22;101531.19;;;27.98;44.84
59729;BME280;45588;51.598;5.618;2022-08-02T12:05:48;101540.38;;;28.15;45.98
59729;BME280;45588;51.598;5.618;2022-08-02T12:08:14;101533.28;;;28.36;42.71
59729;BME280;45588;51.598;5.618;2022-08-02T12:10:46;101527.34;;;28.51;44.48
59729;BME280;45588;51.598;5.618;2022-08-02T12:13:12;101533.44;;;28.55;43.16
59729;BME280;45588;51.598;5.618;2022-08-02T12:15:42;101540.06;;;28.46;42.62
59729;BME280;45588;51.598;5.618;2022-08-02T12:18:13;101540.56;;;28.32;41.47
59729;BME280;45588;51.598;5.618;2022-08-02T12:20:58;101532.19;;;28.63;43.47
59729;BME280;45588;51.598;5.618;2022-08-02T12:23:24;101538.09;;;28.72;43.01
59729;BME280;45588;51.598;5.618;2022-08-02T12:26:06;101528.66;;;28.63;41.72
59729;BME280;45588;51.598;5.618;2022-08-02T12:28:37;101528.75;;;28.38;41.01
59729;BME280;45588;51.598;5.618;2022-08-02T12:31:04;101527.88;;;28.15;40.40
59729;BME280;45588;51.598;5.618;2022-08-02T12:33:45;101522.72;;;28.33;42.92
59729;BME280;45588;51.598;5.618;2022-08-02T12:36:15;101533.16;;;28.17;42.05
59729;BME280;45588;51.598;5.618;2022-08-02T12:38:51;101530.41;;;28.18;42.65
59729;BME280;45588;51.598;5.618;2022-08-02T12:41:16;101520.88;;;28.11;42.10
59729;BME280;45588;51.598;5.618;2022-08-02T12:43:42;101513.84;;;28.09;45.04
59729;BME280;45588;51.598;5.618;2022-08-02T12:46:15;101521.00;;;28.08;41.46
59729;BME280;45588;51.598;5.618;2022-08-02T12:48:41;101521.47;;;27.96;41.27
59729;BME280;45588;51.598;5.618;2022-08-02T12:51:21;101524.28;;;27.93;44.40
59729;BME280;45588;51.598;5.618;2022-08-02T12:53:47;101512.41;;;28.22;45.28
59729;BME280;45588;51.598;5.618;2022-08-02T12:56:36;101515.09;;;28.22;46.10
59729;BME280;45588;51.598;5.618;2022-08-02T12:59:02;101514.41;;;28.17;39.92
59729;BME280;45588;51.598;5.618;2022-08-02T13:01:27;101509.19;;;28.36;42.69
59729;BME280;45588;51.598;5.618;2022-08-02T13:03:53;101503.81;;;28.36;43.31
59729;BME280;45588;51.598;5.618;2022-08-02T13:06:19;101507.47;;;28.11;42.47
59729;BME280;45588;51.598;5.618;2022-08-02T13:08:46;101505.28;;;27.99;41.91
59729;BME280;45588;51.598;5.618;2022-08-02T13:11:11;101496.50;;;27.95;44.84
59729;BME280;45588;51.598;5.618;2022-08-02T13:13:36;101498.22;;;28.20;44.87
59729;BME280;45588;51.598;5.618;2022-08-02T13:16:02;101493.34;;;28.30;45.24